Time;durP1;ratioP1;P1;durP2;ratioP2;P2;SDS_P1;SDS_P2;PMS_P1;PMS_P2;Temp;Humidity;BMP_temperature;BMP_pressure;BME280_temperature;BME280_humidity;BME280_pressure;Samples;Min_cycle;Max_cycle;Signal;HPM_P1;HPM_P2
2020/12/02 00:02:29;;;;;;;52.58;20.80;;;;;;;;;;5027282;28;20038;-59
2020/12/02 00:04:57;;;;;;;61.72;22.02;;;;;;;;;;5024881;28;20029;-59
2020/12/02 00:07:23;;;;;;;56.20;21.52;;;;;;;;;;5021534;28;20048;-59
2020/12/02 00:09:49;;;;;;;59.25;21.88;;;;;;;;;;5023232;28;20621;-58
2020/12/02 00:12:16;;;;;;;51.53;19.20;;;;;;;;;;5016402;28;20042;-58
2020/12/02 00:14:42;;;;;;;52.90;19.80;;;;;;;;;;5022237;28;20059;-58
2020/12/02 00:17:14;;;;;;;53.13;20.08;;;;;;;;;;5019870;28;20022;-59
2020/12/02 00:19:40;;;;;;;52.92;19.55;;;;;;;;;;5021888;28;20018;-59
2020/12/02 00:22:06;;;;;;;50.67;19.77;;;;;;;;;;5025840;28;20736;-58
2020/12/02 00:24:34;;;;;;;49.67;18.05;;;;;;;;;;5025909;28;20023;-58
2020/12/02 00:27:01;;;;;;;48.30;17.77;;;;;;;;;;5025606;28;20044;-58
2020/12/02 00:29:27;;;;;;;42.78;18.30;;;;;;;;;;5021798;28;20014;-58
2020/12/02 00:31:53;;;;;;;51.67;19.05;;;;;;;;;;5022838;28;20048;-58
2020/12/02 00:34:19;;;;;;;52.05;18.88;;;;;;;;;;5025892;28;20035;-58
2020/12/02 00:36:45;;;;;;;48.97;18.92;;;;;;;;;;5025038;28;20029;-59
2020/12/02 00:39:11;;;;;;;52.33;18.42;;;;;;;;;;5025585;28;20017;-58
2020/12/02 00:41:37;;;;;;;44.88;18.90;;;;;;;;;;5025813;28;20358;-58
2020/12/02 00:44:03;;;;;;;52.35;18.98;;;;;;;;;;5024619;28;20492;-58
2020/12/02 00:46:30;;;;;;;51.50;18.80;;;;;;;;;;5022946;28;20029;-58
2020/12/02 00:48:56;;;;;;;48.97;18.58;;;;;;;;;;5026950;28;20555;-58
2020/12/02 00:51:23;;;;;;;50.83;19.02;;;;;;;;;;5025935;28;20029;-58
2020/12/02 00:53:49;;;;;;;46.38;18.23;;;;;;;;;;5024986;28;20025;-58
2020/12/02 00:56:16;;;;;;;54.53;19.60;;;;;;;;;;5025039;28;20049;-58
2020/12/02 00:58:53;;;;;;;49.72;18.63;;;;;;;;;;5020283;28;20557;-58
2020/12/02 01:01:27;;;;;;;54.20;18.98;;;;;;;;;;5026172;28;20064;-58
2020/12/02 01:03:57;;;;;;;55.67;17.73;;;;;;;;;;5021668;28;20033;-58
2020/12/02 01:06:23;;;;;;;56.58;19.00;;;;;;;;;;5011796;28;20084;-59
2020/12/02 01:08:50;;;;;;;53.92;18.60;;;;;;;;;;5019984;28;20028;-58
2020/12/02 01:11:25;;;;;;;54.78;17.73;;;;;;;;;;5022474;28;20021;-58
2020/12/02 01:13:58;;;;;;;52.75;17.65;;;;;;;;;;5017612;28;20046;-58
2020/12/02 01:16:30;;;;;;;58.67;18.33;;;;;;;;;;5012348;28;20010;-59
2020/12/02 01:18:56;;;;;;;47.60;16.98;;;;;;;;;;5021495;28;20572;-58
2020/12/02 01:21:42;;;;;;;50.25;18.60;;;;;;;;;;5024780;28;20464;-58
2020/12/02 01:24:11;;;;;;;52.08;18.55;;;;;;;;;;5018978;28;20033;-58
2020/12/02 01:26:43;;;;;;;52.53;17.52;;;;;;;;;;5023514;28;20507;-58
2020/12/02 01:29:15;;;;;;;53.13;18.85;;;;;;;;;;5015668;28;20111;-58
2020/12/02 01:31:44;;;;;;;52.45;18.45;;;;;;;;;;5011241;28;20040;-59
2020/12/02 01:34:10;;;;;;;52.95;17.95;;;;;;;;;;5019742;28;20022;-59
2020/12/02 01:36:59;;;;;;;53.85;17.98;;;;;;;;;;5021500;28;20036;-58
2020/12/02 01:39:28;;;;;;;48.25;16.90;;;;;;;;;;5003771;28;20041;-60
2020/12/02 01:41:55;;;;;;;48.55;17.60;;;;;;;;;;5018586;28;20026;-59
2020/12/02 01:44:22;;;;;;;44.70;15.60;;;;;;;;;;5015062;28;20057;-58
2020/12/02 01:47:06;;;;;;;43.38;17.48;;;;;;;;;;5021254;28;20030;-58
2020/12/02 01:49:52;;;;;;;53.03;18.15;;;;;;;;;;5017679;28;20029;-58
2020/12/02 01:52:33;;;;;;;52.58;16.73;;;;;;;;;;5013349;28;20128;-58
2020/12/02 01:55:01;;;;;;;51.90;17.45;;;;;;;;;;5011891;28;20373;-58
2020/12/02 01:57:30;;;;;;;56.40;16.58;;;;;;;;;;5019376;28;20029;-58
2020/12/02 02:00:05;;;;;;;53.23;16.37;;;;;;;;;;5017530;28;20065;-58
2020/12/02 02:02:43;;;;;;;47.22;14.35;;;;;;;;;;5015745;28;20038;-58
2020/12/02 02:05:09;;;;;;;50.22;15.52;;;;;;;;;;5019537;28;20025;-58
2020/12/02 02:07:37;;;;;;;50.97;15.10;;;;;;;;;;5025542;28;20034;-58
2020/12/02 02:10:23;;;;;;;52.10;14.23;;;;;;;;;;5022194;28;20029;-58
2020/12/02 02:12:55;;;;;;;54.67;16.83;;;;;;;;;;5019247;28;20393;-58
2020/12/02 02:15:42;;;;;;;56.72;17.48;;;;;;;;;;5012587;28;20097;-58
2020/12/02 02:18:28;;;;;;;56.25;16.77;;;;;;;;;;5025666;28;20036;-58
2020/12/02 02:20:55;;;;;;;60.88;17.23;;;;;;;;;;5024556;28;20032;-58
2020/12/02 02:23:21;;;;;;;58.33;16.02;;;;;;;;;;5021672;28;20048;-58
2020/12/02 02:25:57;;;;;;;58.13;16.20;;;;;;;;;;5024524;28;20025;-58
2020/12/02 02:28:23;;;;;;;58.47;16.70;;;;;;;;;;5019951;28;20053;-58
2020/12/02 02:30:50;;;;;;;55.75;15.68;;;;;;;;;;5020552;28;20018;-58
2020/12/02 02:33:17;;;;;;;62.20;17.65;;;;;;;;;;5023722;28;20075;-58
2020/12/02 02:35:43;;;;;;;63.88;16.58;;;;;;;;;;5023103;28;20271;-58
2020/12/02 02:38:09;;;;;;;63.72;17.23;;;;;;;;;;5009059;28;20367;-58
2020/12/02 02:40:35;;;;;;;60.75;16.63;;;;;;;;;;5020596;28;20021;-58
2020/12/02 02:43:03;;;;;;;59.30;17.17;;;;;;;;;;5029266;28;20053;-59
2020/12/02 02:45:29;;;;;;;54.72;15.65;;;;;;;;;;5023683;28;20025;-58
2020/12/02 02:47:57;;;;;;;48.55;15.93;;;;;;;;;;5025540;28;20018;-58
2020/12/02 02:50:24;;;;;;;51.08;14.65;;;;;;;;;;5026004;28;20097;-58
2020/12/02 02:52:51;;;;;;;54.00;15.27;;;;;;;;;;5026318;28;20041;-58
2020/12/02 02:55:19;;;;;;;56.92;14.95;;;;;;;;;;5027225;28;20021;-58
2020/12/02 02:57:46;;;;;;;40.15;13.48;;;;;;;;;;5025016;28;20029;-58
2020/12/02 03:00:14;;;;;;;41.13;14.05;;;;;;;;;;5027956;28;20037;-58
2020/12/02 03:02:40;;;;;;;44.80;13.15;;;;;;;;;;5027110;28;20109;-58
2020/12/02 03:05:07;;;;;;;40.88;14.30;;;;;;;;;;5028592;28;20109;-58
2020/12/02 03:07:33;;;;;;;42.58;14.13;;;;;;;;;;5027251;28;20070;-59
2020/12/02 03:10:00;;;;;;;39.35;13.68;;;;;;;;;;5021697;28;20079;-58
2020/12/02 03:12:26;;;;;;;42.22;13.95;;;;;;;;;;5019954;28;20168;-58
2020/12/02 03:14:52;;;;;;;44.80;14.63;;;;;;;;;;5016294;28;20100;-58
2020/12/02 03:17:20;;;;;;;46.13;14.10;;;;;;;;;;5018052;28;20033;-58
2020/12/02 03:20:01;;;;;;;47.55;14.98;;;;;;;;;;5025740;28;20475;-58
2020/12/02 03:22:27;;;;;;;46.63;14.57;;;;;;;;;;5017286;28;20696;-59
2020/12/02 03:24:55;;;;;;;45.78;15.75;;;;;;;;;;5025633;28;20113;-58
2020/12/02 03:27:22;;;;;;;48.38;15.02;;;;;;;;;;5013147;28;20025;-58
2020/12/02 03:29:48;;;;;;;44.70;14.85;;;;;;;;;;5018291;28;20033;-58
2020/12/02 03:32:14;;;;;;;48.13;15.00;;;;;;;;;;5021840;28;20511;-58
2020/12/02 03:34:40;;;;;;;52.90;15.85;;;;;;;;;;5021860;28;20034;-58
2020/12/02 03:37:06;;;;;;;56.65;16.92;;;;;;;;;;5017188;28;20029;-58
2020/12/02 03:39:32;;;;;;;45.50;15.30;;;;;;;;;;5015663;28;20117;-58
2020/12/02 03:41:58;;;;;;;57.63;15.52;;;;;;;;;;5024204;28;20026;-59
2020/12/02 03:44:25;;;;;;;56.45;15.90;;;;;;;;;;5017524;28;20493;-58
2020/12/02 03:46:51;;;;;;;56.38;15.70;;;;;;;;;;5027270;28;20050;-58
2020/12/02 03:49:17;;;;;;;47.28;15.32;;;;;;;;;;5019855;28;20045;-58
2020/12/02 03:51:43;;;;;;;61.15;16.25;;;;;;;;;;5023053;28;20481;-58
2020/12/02 03:54:10;;;;;;;43.55;15.65;;;;;;;;;;5022719;28;20026;-58
2020/12/02 03:56:36;;;;;;;58.03;17.02;;;;;;;;;;5023764;28;20053;-58
2020/12/02 03:59:03;;;;;;;62.22;16.40;;;;;;;;;;5024282;28;20249;-58
2020/12/02 04:01:29;;;;;;;62.95;16.73;;;;;;;;;;5024232;28;20021;-58
2020/12/02 04:03:55;;;;;;;60.20;16.73;;;;;;;;;;5027056;28;20014;-58
2020/12/02 04:06:21;;;;;;;61.25;16.48;;;;;;;;;;5021820;28;20108;-58
2020/12/02 04:08:47;;;;;;;64.90;16.60;;;;;;;;;;5021510;28;20080;-58
2020/12/02 04:11:14;;;;;;;70.22;19.33;;;;;;;;;;5019862;28;20037;-58
2020/12/02 04:13:40;;;;;;;76.75;19.80;;;;;;;;;;5011457;28;20120;-58
2020/12/02 04:16:06;;;;;;;63.42;19.02;;;;;;;;;;5010102;28;20036;-58
2020/12/02 04:18:32;;;;;;;62.20;18.60;;;;;;;;;;5022766;28;20025;-58
2020/12/02 04:20:59;;;;;;;60.13;18.40;;;;;;;;;;5020608;28;20250;-58
2020/12/02 04:23:25;;;;;;;51.38;17.55;;;;;;;;;;5023144;28;20121;-58
2020/12/02 04:25:51;;;;;;;47.60;16.40;;;;;;;;;;5013945;28;20022;-58
2020/12/02 04:28:17;;;;;;;49.55;16.73;;;;;;;;;;5018463;28;20026;-58
2020/12/02 04:30:46;;;;;;;41.38;15.65;;;;;;;;;;5017775;28;20113;-58
2020/12/02 04:33:12;;;;;;;50.30;16.52;;;;;;;;;;5019071;28;20026;-58
2020/12/02 04:35:39;;;;;;;55.42;16.42;;;;;;;;;;5018949;28;20097;-58
2020/12/02 04:38:08;;;;;;;64.82;21.75;;;;;;;;;;5021778;28;20025;-58
2020/12/02 04:40:38;;;;;;;67.25;20.00;;;;;;;;;;5020013;28;20048;-58
2020/12/02 04:43:20;;;;;;;69.47;21.63;;;;;;;;;;5017921;28;20484;-58
2020/12/02 04:45:48;;;;;;;84.60;23.10;;;;;;;;;;5022715;28;20226;-58
2020/12/02 04:48:20;;;;;;;75.30;20.35;;;;;;;;;;5024431;28;20439;-58
2020/12/02 04:50:46;;;;;;;77.75;22.40;;;;;;;;;;5015762;28;20231;-58
2020/12/02 04:53:19;;;;;;;76.80;22.33;;;;;;;;;;5025151;28;20124;-58
2020/12/02 04:55:50;;;;;;;86.93;23.15;;;;;;;;;;5018459;28;20226;-58
2020/12/02 04:58:24;;;;;;;86.88;22.65;;;;;;;;;;5012254;28;20018;-58
2020/12/02 05:00:50;;;;;;;81.68;23.60;;;;;;;;;;5011739;28;20025;-58
2020/12/02 05:03:16;;;;;;;79.43;22.00;;;;;;;;;;5015630;28;20472;-58
2020/12/02 05:05:43;;;;;;;75.97;23.48;;;;;;;;;;5020800;28;20029;-58
2020/12/02 05:08:21;;;;;;;98.57;23.83;;;;;;;;;;5022865;28;20064;-58
2020/12/02 05:10:47;;;;;;;79.82;22.15;;;;;;;;;;5016787;28;20038;-58
2020/12/02 05:13:14;;;;;;;68.65;21.83;;;;;;;;;;5015337;28;20072;-58
2020/12/02 05:15:40;;;;;;;72.82;22.17;;;;;;;;;;5007487;28;20424;-58
2020/12/02 05:18:21;;;;;;;70.32;21.98;;;;;;;;;;5008884;28;20062;-58
2020/12/02 05:21:08;;;;;;;68.93;20.55;;;;;;;;;;5018976;28;20022;-58
2020/12/02 05:23:34;;;;;;;56.40;18.13;;;;;;;;;;5020202;28;20562;-58
2020/12/02 05:26:00;;;;;;;63.92;19.77;;;;;;;;;;5016821;28;20116;-58
2020/12/02 05:28:40;;;;;;;71.13;18.88;;;;;;;;;;5021364;28;20026;-58
2020/12/02 05:31:13;;;;;;;72.35;20.17;;;;;;;;;;5020738;28;20025;-58
2020/12/02 05:33:39;;;;;;;71.35;21.33;;;;;;;;;;5022584;28;20064;-58
2020/12/02 05:36:16;;;;;;;64.00;18.02;;;;;;;;;;5021224;28;20033;-58
2020/12/02 05:38:48;;;;;;;73.85;20.40;;;;;;;;;;5020881;28;20064;-58
2020/12/02 05:41:16;;;;;;;65.28;19.75;;;;;;;;;;5021228;28;20033;-58
2020/12/02 05:43:49;;;;;;;75.03;19.88;;;;;;;;;;5018292;28;20057;-58
2020/12/02 05:46:24;;;;;;;70.22;21.67;;;;;;;;;;5023253;28;20120;-58
2020/12/02 05:48:58;;;;;;;63.40;19.08;;;;;;;;;;5026474;28;20040;-58
2020/12/02 05:51:24;;;;;;;72.65;19.60;;;;;;;;;;5018929;28;20041;-58
2020/12/02 05:53:56;;;;;;;63.60;18.00;;;;;;;;;;5027236;28;20060;-58
2020/12/02 05:56:22;;;;;;;71.78;20.42;;;;;;;;;;5016830;28;20017;-58
2020/12/02 05:58:48;;;;;;;61.50;17.30;;;;;;;;;;5019722;28;20506;-58
2020/12/02 06:01:16;;;;;;;73.32;19.00;;;;;;;;;;5023254;28;20511;-58
2020/12/02 06:03:42;;;;;;;63.80;18.95;;;;;;;;;;5029220;28;20063;-58
2020/12/02 06:06:11;;;;;;;74.72;18.98;;;;;;;;;;5026160;28;20026;-58
2020/12/02 06:08:37;;;;;;;57.07;18.23;;;;;;;;;;5015262;28;20040;-58
2020/12/02 06:11:33;;;;;;;66.10;20.30;;;;;;;;;;5015377;28;20531;-58
2020/12/02 06:14:05;;;;;;;65.13;18.88;;;;;;;;;;5015755;28;20041;-58
2020/12/02 06:16:47;;;;;;;55.92;18.35;;;;;;;;;;5027245;28;20022;-58
2020/12/02 06:19:22;;;;;;;63.95;17.63;;;;;;;;;;5022682;28;20021;-58
2020/12/02 06:21:50;;;;;;;60.72;18.55;;;;;;;;;;5025909;28;20026;-58
2020/12/02 06:24:46;;;;;;;62.53;17.60;;;;;;;;;;5022088;28;20057;-58
2020/12/02 06:27:15;;;;;;;118.32;20.75;;;;;;;;;;5015725;28;20068;-58
2020/12/02 06:29:43;;;;;;;96.07;19.83;;;;;;;;;;5013573;28;20354;-58
2020/12/02 06:32:11;;;;;;;77.93;19.13;;;;;;;;;;5021659;28;20121;-58
2020/12/02 06:34:38;;;;;;;81.97;19.98;;;;;;;;;;5023949;28;20461;-58
2020/12/02 06:37:14;;;;;;;69.65;19.90;;;;;;;;;;5026375;28;20104;-58
2020/12/02 06:39:42;;;;;;;76.75;20.67;;;;;;;;;;5019039;28;20032;-58
2020/12/02 06:42:27;;;;;;;72.60;22.20;;;;;;;;;;5026124;28;20121;-58
2020/12/02 06:45:08;;;;;;;70.38;20.98;;;;;;;;;;5028244;28;20043;-58
2020/12/02 06:47:54;;;;;;;64.00;19.85;;;;;;;;;;5023955;28;20676;-58
2020/12/02 06:50:23;;;;;;;71.97;21.55;;;;;;;;;;5019043;28;20025;-58
2020/12/02 06:52:49;;;;;;;61.20;19.42;;;;;;;;;;5018191;28;20038;-58
2020/12/02 06:55:15;;;;;;;60.38;20.13;;;;;;;;;;5015475;28;20022;-58
2020/12/02 06:57:41;;;;;;;67.03;20.45;;;;;;;;;;5028116;28;20029;-58
2020/12/02 07:00:10;;;;;;;69.40;21.40;;;;;;;;;;5025013;28;20092;-58
2020/12/02 07:02:53;;;;;;;62.13;20.27;;;;;;;;;;5017188;28;20030;-58
2020/12/02 07:05:40;;;;;;;56.60;18.65;;;;;;;;;;5024234;28;20037;-58
2020/12/02 07:08:17;;;;;;;65.65;22.02;;;;;;;;;;5022382;28;20143;-58
2020/12/02 07:10:55;;;;;;;72.78;22.33;;;;;;;;;;5021625;28;20037;-58
2020/12/02 07:13:22;;;;;;;84.40;26.30;;;;;;;;;;5019046;28;20542;-58
2020/12/02 07:15:48;;;;;;;82.68;24.98;;;;;;;;;;5021528;28;20025;-58
2020/12/02 07:18:16;;;;;;;78.38;23.95;;;;;;;;;;5027634;28;20131;-58
2020/12/02 07:20:46;;;;;;;75.63;24.85;;;;;;;;;;5025543;28;20049;-58
2020/12/02 07:23:12;;;;;;;;;;;;;;;;;;5027580;28;20457;-58
2020/12/02 07:25:38;;;;;;;76.47;22.73;;;;;;;;;;5025578;28;19909;-58
2020/12/02 07:28:13;;;;;;;76.05;22.05;;;;;;;;;;5027984;28;20026;-58
2020/12/02 07:30:40;;;;;;;85.82;23.92;;;;;;;;;;5022325;28;20184;-58
2020/12/02 07:33:29;;;;;;;74.93;24.83;;;;;;;;;;5024911;28;20039;-58
2020/12/02 07:36:03;;;;;;;84.35;24.83;;;;;;;;;;5011820;28;20048;-58
2020/12/02 07:38:29;;;;;;;87.50;25.58;;;;;;;;;;5022779;28;20026;-58
2020/12/02 07:41:04;;;;;;;69.60;22.08;;;;;;;;;;5025838;28;20100;-58
2020/12/02 07:43:31;;;;;;;79.43;24.38;;;;;;;;;;5025603;28;20073;-58
2020/12/02 07:46:01;;;;;;;70.07;22.10;;;;;;;;;;5002749;28;20061;-58
2020/12/02 07:48:28;;;;;;;79.97;23.23;;;;;;;;;;5014369;28;20022;-58
2020/12/02 07:51:03;;;;;;;72.78;23.73;;;;;;;;;;5012920;28;20029;-58
2020/12/02 07:53:39;;;;;;;71.85;21.90;;;;;;;;;;5012212;28;20052;-58
2020/12/02 07:56:07;;;;;;;66.15;20.20;;;;;;;;;;5025904;28;20028;-58
2020/12/02 07:58:36;;;;;;;62.15;20.65;;;;;;;;;;5012147;28;20033;-59
2020/12/02 08:01:08;;;;;;;67.28;20.38;;;;;;;;;;5018344;28;20029;-60
2020/12/02 08:03:43;;;;;;;64.53;19.77;;;;;;;;;;5015238;28;20122;-60
2020/12/02 08:06:09;;;;;;;68.07;21.13;;;;;;;;;;5017617;28;20037;-59
2020/12/02 08:08:35;;;;;;;67.05;20.63;;;;;;;;;;5020425;28;20030;-60
2020/12/02 08:11:04;;;;;;;60.78;20.55;;;;;;;;;;5020895;28;20453;-60
2020/12/02 08:13:31;;;;;;;66.22;21.98;;;;;;;;;;5013585;28;20041;-60
2020/12/02 08:15:59;;;;;;;69.38;21.95;;;;;;;;;;5020281;28;20571;-59
2020/12/02 08:18:31;;;;;;;64.75;20.15;;;;;;;;;;5025523;28;20021;-59
2020/12/02 08:21:26;;;;;;;63.88;20.25;;;;;;;;;;5018485;28;20024;-59
2020/12/02 08:24:11;;;;;;;66.43;20.73;;;;;;;;;;5004594;28;20046;-59
2020/12/02 08:26:37;;;;;;;71.72;22.55;;;;;;;;;;5018506;28;20030;-59
2020/12/02 08:29:05;;;;;;;65.45;21.85;;;;;;;;;;5012724;28;20029;-59
2020/12/02 08:31:33;;;;;;;70.32;21.52;;;;;;;;;;5021565;28;20120;-59
2020/12/02 08:34:17;;;;;;;69.75;20.60;;;;;;;;;;5014927;28;20040;-59
2020/12/02 08:37:03;;;;;;;65.47;21.63;;;;;;;;;;5011037;28;20022;-59
2020/12/02 08:39:30;;;;;;;62.35;20.25;;;;;;;;;;5018105;28;20048;-59
2020/12/02 08:41:56;;;;;;;59.63;19.88;;;;;;;;;;5016252;28;20426;-59
2020/12/02 08:44:22;;;;;;;66.05;21.98;;;;;;;;;;5020866;28;20058;-59
2020/12/02 08:46:56;;;;;;;68.70;21.23;;;;;;;;;;5022149;28;20026;-59
2020/12/02 08:49:27;;;;;;;72.78;20.55;;;;;;;;;;5013499;28;20030;-59
2020/12/02 08:51:53;;;;;;;;;;;;;;;;;;5013360;28;20036;-59
2020/12/02 08:54:21;;;;;;;63.28;20.52;;;;;;;;;;5013433;28;19909;-59
2020/12/02 08:56:48;;;;;;;61.83;20.42;;;;;;;;;;5011459;28;20034;-58
2020/12/02 08:59:14;;;;;;;60.65;19.77;;;;;;;;;;4995545;28;20385;-58
2020/12/02 09:01:40;;;;;;;57.80;18.90;;;;;;;;;;5014822;28;20047;-58
2020/12/02 09:04:07;;;;;;;61.45;18.83;;;;;;;;;;5017516;28;20026;-58
2020/12/02 09:06:33;;;;;;;58.55;19.52;;;;;;;;;;5023400;28;20540;-58
2020/12/02 09:08:59;;;;;;;57.88;19.08;;;;;;;;;;5026438;28;20029;-58
2020/12/02 09:11:33;;;;;;;61.60;20.70;;;;;;;;;;5026567;28;20034;-58
2020/12/02 09:13:59;;;;;;;56.78;19.67;;;;;;;;;;5027057;28;20040;-58
2020/12/02 09:16:27;;;;;;;47.80;18.35;;;;;;;;;;5026723;28;20465;-58
2020/12/02 09:18:54;;;;;;;52.20;18.58;;;;;;;;;;5025920;28;20029;-58
2020/12/02 09:21:21;;;;;;;61.10;20.63;;;;;;;;;;5026491;28;20029;-58
2020/12/02 09:23:47;;;;;;;64.15;22.00;;;;;;;;;;5025835;28;20546;-58
2020/12/02 09:26:18;;;;;;;67.93;24.73;;;;;;;;;;5026626;28;20106;-58
2020/12/02 09:28:44;;;;;;;54.25;19.77;;;;;;;;;;5025994;28;20022;-58
2020/12/02 09:31:10;;;;;;;52.55;19.17;;;;;;;;;;5026369;28;20477;-58
2020/12/02 09:33:36;;;;;;;48.72;17.90;;;;;;;;;;5025707;28;20120;-58
2020/12/02 09:36:02;;;;;;;46.85;17.05;;;;;;;;;;5025604;28;20006;-58
2020/12/02 09:38:28;;;;;;;48.42;18.35;;;;;;;;;;5026547;28;20037;-58
2020/12/02 09:40:54;;;;;;;49.40;18.75;;;;;;;;;;5025814;28;20768;-58
2020/12/02 09:43:24;;;;;;;55.42;19.23;;;;;;;;;;5026568;28;20095;-58
2020/12/02 09:45:57;;;;;;;52.10;18.70;;;;;;;;;;5025841;28;20071;-58
2020/12/02 09:48:26;;;;;;;49.95;19.52;;;;;;;;;;5025482;28;20033;-60
2020/12/02 09:50:52;;;;;;;58.83;19.52;;;;;;;;;;5022701;28;20037;-58
2020/12/02 09:53:20;;;;;;;56.05;21.13;;;;;;;;;;5022256;28;20037;-58
2020/12/02 09:55:47;;;;;;;58.88;21.65;;;;;;;;;;5019711;28;20484;-58
2020/12/02 09:58:13;;;;;;;60.17;22.80;;;;;;;;;;5026614;28;20029;-58
2020/12/02 10:00:39;;;;;;;54.00;20.77;;;;;;;;;;5022122;28;20026;-58
2020/12/02 10:03:05;;;;;;;55.53;20.25;;;;;;;;;;5018957;28;20386;-58
2020/12/02 10:05:40;;;;;;;53.80;19.58;;;;;;;;;;5019141;28;20388;-58
2020/12/02 10:08:11;;;;;;;54.60;18.42;;;;;;;;;;5026220;28;20087;-60
2020/12/02 10:10:59;;;;;;;51.05;19.63;;;;;;;;;;5025816;28;20510;-58
2020/12/02 10:13:40;;;;;;;47.92;18.90;;;;;;;;;;5026521;28;20067;-58
2020/12/02 10:16:29;;;;;;;41.35;17.15;;;;;;;;;;5008488;28;20094;-58
2020/12/02 10:19:21;;;;;;;49.50;19.10;;;;;;;;;;5025668;28;20230;-58
2020/12/02 10:21:56;;;;;;;45.15;18.42;;;;;;;;;;4994909;28;20037;-58
2020/12/02 10:24:41;;;;;;;51.60;20.33;;;;;;;;;;5026564;28;20026;-58
2020/12/02 10:27:15;;;;;;;48.53;19.15;;;;;;;;;;5025939;28;20030;-58
2020/12/02 10:29:53;;;;;;;49.72;19.05;;;;;;;;;;5026087;28;20466;-58
2020/12/02 10:32:38;;;;;;;51.15;19.00;;;;;;;;;;5020505;28;20087;-58
2020/12/02 10:35:06;;;;;;;50.85;18.98;;;;;;;;;;5021987;28;20413;-59
2020/12/02 10:37:36;;;;;;;48.50;18.92;;;;;;;;;;5022214;28;20044;-58
2020/12/02 10:40:04;;;;;;;51.97;19.80;;;;;;;;;;5029571;28;20036;-58
2020/12/02 10:42:38;;;;;;;51.88;19.08;;;;;;;;;;5025951;28;20025;-61
2020/12/02 10:45:09;;;;;;;49.95;19.77;;;;;;;;;;5029897;28;20041;-58
2020/12/02 10:47:53;;;;;;;44.35;17.00;;;;;;;;;;5021858;28;20430;-58
2020/12/02 10:50:22;;;;;;;47.60;19.20;;;;;;;;;;5029808;28;20030;-58
2020/12/02 10:52:49;;;;;;;47.38;18.33;;;;;;;;;;5027107;28;20392;-58
2020/12/02 10:55:19;;;;;;;45.05;18.15;;;;;;;;;;5028488;28;20115;-58
2020/12/02 10:57:45;;;;;;;46.40;17.85;;;;;;;;;;5028995;28;20704;-58
2020/12/02 11:00:14;;;;;;;45.28;18.08;;;;;;;;;;5028683;28;20093;-58
2020/12/02 11:02:41;;;;;;;45.58;17.90;;;;;;;;;;5028656;28;20103;-58
2020/12/02 11:05:07;;;;;;;43.42;16.10;;;;;;;;;;5021008;28;20025;-60
2020/12/02 11:07:51;;;;;;;34.40;15.38;;;;;;;;;;5029482;28;20056;-58
2020/12/02 11:10:31;;;;;;;29.52;12.45;;;;;;;;;;5028214;28;20033;-58
2020/12/02 11:13:03;;;;;;;28.17;13.40;;;;;;;;;;5028627;28;20054;-58
2020/12/02 11:15:44;;;;;;;30.33;12.80;;;;;;;;;;5016319;28;20071;-58
2020/12/02 11:18:18;;;;;;;29.05;13.27;;;;;;;;;;5024841;28;20025;-58
2020/12/02 11:21:01;;;;;;;32.10;14.15;;;;;;;;;;5028352;28;20053;-58
2020/12/02 11:23:27;;;;;;;32.05;14.55;;;;;;;;;;5029286;28;20033;-58
2020/12/02 11:26:10;;;;;;;29.67;13.85;;;;;;;;;;5026967;28;20492;-58
2020/12/02 11:28:36;;;;;;;27.52;13.38;;;;;;;;;;5027275;28;20433;-58
2020/12/02 11:31:08;;;;;;;28.08;13.38;;;;;;;;;;5029141;28;20026;-58
2020/12/02 11:33:45;;;;;;;26.10;12.32;;;;;;;;;;5028738;28;20033;-58
2020/12/02 11:36:29;;;;;;;26.27;12.32;;;;;;;;;;5016884;28;20113;-59
2020/12/02 11:38:55;;;;;;;29.70;11.05;;;;;;;;;;5028057;28;20017;-58
2020/12/02 11:41:27;;;;;;;24.83;10.73;;;;;;;;;;5022220;28;20053;-59
2020/12/02 11:43:56;;;;;;;31.02;12.93;;;;;;;;;;5018706;28;20487;-59
2020/12/02 11:46:23;;;;;;;29.77;13.27;;;;;;;;;;5008922;28;20029;-59
2020/12/02 11:49:02;;;;;;;24.50;11.95;;;;;;;;;;5008799;28;20088;-59
2020/12/02 11:51:32;;;;;;;23.70;10.83;;;;;;;;;;5015624;28;20030;-59
2020/12/02 11:54:03;;;;;;;24.03;10.80;;;;;;;;;;5021922;28;20041;-59
2020/12/02 11:56:34;;;;;;;20.27;9.23;;;;;;;;;;5016736;28;20261;-59
2020/12/02 11:59:08;;;;;;;21.55;9.77;;;;;;;;;;5020328;28;20080;-58
2020/12/02 12:01:53;;;;;;;20.95;9.57;;;;;;;;;;5022989;28;20414;-59
2020/12/02 12:04:19;;;;;;;21.42;10.38;;;;;;;;;;5024581;28;20080;-59
2020/12/02 12:06:47;;;;;;;22.65;10.27;;;;;;;;;;5023586;28;20045;-59
2020/12/02 12:09:16;;;;;;;25.10;10.63;;;;;;;;;;5027822;28;20044;-59
2020/12/02 12:11:42;;;;;;;21.33;10.13;;;;;;;;;;5024656;28;20027;-59
2020/12/02 12:14:27;;;;;;;22.77;11.00;;;;;;;;;;5020780;28;20034;-59
2020/12/02 12:17:16;;;;;;;24.20;10.07;;;;;;;;;;5022246;28;20087;-58
2020/12/02 12:19:46;;;;;;;21.75;9.75;;;;;;;;;;5022864;28;20159;-59
2020/12/02 12:22:33;;;;;;;22.10;9.73;;;;;;;;;;5023654;28;20099;-60
2020/12/02 12:25:01;;;;;;;31.60;10.40;;;;;;;;;;4988008;28;20041;-60
2020/12/02 12:27:29;;;;;;;25.13;10.88;;;;;;;;;;5021335;28;20173;-60
2020/12/02 12:29:56;;;;;;;26.67;12.00;;;;;;;;;;5020720;28;20018;-60
2020/12/02 12:32:33;;;;;;;23.83;10.73;;;;;;;;;;4983989;28;20086;-58
2020/12/02 12:35:02;;;;;;;24.40;11.30;;;;;;;;;;5020969;28;20025;-60
2020/12/02 12:37:28;;;;;;;25.80;11.20;;;;;;;;;;5023811;28;20049;-60
2020/12/02 12:39:57;;;;;;;24.85;10.75;;;;;;;;;;5023005;28;20030;-60
2020/12/02 12:42:23;;;;;;;27.38;11.93;;;;;;;;;;5015734;28;20485;-60
2020/12/02 12:44:50;;;;;;;27.77;11.80;;;;;;;;;;5022034;28;20053;-60
2020/12/02 12:47:33;;;;;;;24.05;10.43;;;;;;;;;;5014976;28;20025;-60
2020/12/02 12:50:00;;;;;;;25.05;10.88;;;;;;;;;;5022331;28;20037;-59
2020/12/02 12:52:27;;;;;;;24.98;11.02;;;;;;;;;;5018196;28;20103;-59
2020/12/02 12:54:53;;;;;;;24.38;10.52;;;;;;;;;;5020118;28;20074;-60
2020/12/02 12:57:21;;;;;;;26.33;11.07;;;;;;;;;;5020002;28;20034;-60
2020/12/02 12:59:47;;;;;;;23.58;10.48;;;;;;;;;;5019831;28;20036;-60
2020/12/02 13:02:18;;;;;;;24.48;11.50;;;;;;;;;;5019990;28;20160;-60
2020/12/02 13:04:44;;;;;;;;;;;;;;;;;;5007235;28;20025;-60
2020/12/02 13:07:23;;;;;;;22.10;9.27;;;;;;;;;;5013812;28;19909;-59
2020/12/02 13:09:54;;;;;;;15.45;7.40;;;;;;;;;;5013475;28;20521;-60
2020/12/02 13:12:32;;;;;;;14.38;6.90;;;;;;;;;;5020251;28;20108;-59
2020/12/02 13:15:14;;;;;;;18.23;7.60;;;;;;;;;;5012312;28;20050;-59
2020/12/02 13:17:59;;;;;;;13.23;5.50;;;;;;;;;;5010622;28;20041;-59
2020/12/02 13:20:27;;;;;;;12.20;5.20;;;;;;;;;;5012610;28;20018;-59
2020/12/02 13:22:59;;;;;;;10.85;5.15;;;;;;;;;;5015958;28;20093;-60
2020/12/02 13:25:28;;;;;;;10.75;5.20;;;;;;;;;;5010912;28;20153;-59
2020/12/02 13:28:10;;;;;;;12.10;5.47;;;;;;;;;;4976584;28;20034;-57
2020/12/02 13:30:38;;;;;;;12.93;5.97;;;;;;;;;;5007253;28;20489;-57
2020/12/02 13:33:10;;;;;;;13.43;5.70;;;;;;;;;;5008463;28;20040;-57
2020/12/02 13:35:36;;;;;;;13.30;5.85;;;;;;;;;;5012174;28;20113;-58
2020/12/02 13:38:06;;;;;;;14.85;6.10;;;;;;;;;;5016972;28;20419;-57
2020/12/02 13:40:32;;;;;;;11.30;5.37;;;;;;;;;;5012243;28;20028;-59
2020/12/02 13:42:59;;;;;;;14.63;6.72;;;;;;;;;;5008922;28;20851;-59
2020/12/02 13:45:29;;;;;;;16.75;7.68;;;;;;;;;;5021958;28;20057;-59
2020/12/02 13:47:57;;;;;;;19.15;7.45;;;;;;;;;;5010741;28;20121;-59
2020/12/02 13:50:25;;;;;;;15.85;7.72;;;;;;;;;;5011227;28;20022;-59
2020/12/02 13:53:01;;;;;;;16.73;7.80;;;;;;;;;;5009003;28;20040;-60
2020/12/02 13:55:30;;;;;;;13.15;6.43;;;;;;;;;;5010229;28;20521;-60
2020/12/02 13:57:56;;;;;;;15.63;7.18;;;;;;;;;;5012960;28;20079;-59
2020/12/02 14:00:33;;;;;;;15.98;7.30;;;;;;;;;;5021703;28;20049;-60
2020/12/02 14:03:18;;;;;;;15.45;6.75;;;;;;;;;;5008498;28;20538;-60
2020/12/02 14:05:55;;;;;;;18.25;7.65;;;;;;;;;;5019788;28;20461;-60
2020/12/02 14:08:21;;;;;;;18.48;7.78;;;;;;;;;;4996420;28;20036;-59
2020/12/02 14:10:47;;;;;;;16.73;7.75;;;;;;;;;;5020334;28;20689;-60
2020/12/02 14:13:13;;;;;;;17.60;7.60;;;;;;;;;;5025563;28;20033;-59
2020/12/02 14:15:41;;;;;;;19.23;8.57;;;;;;;;;;4988811;28;20037;-59
2020/12/02 14:18:07;;;;;;;18.42;8.50;;;;;;;;;;5025388;28;20037;-59
2020/12/02 14:20:33;;;;;;;19.98;7.53;;;;;;;;;;5028623;28;20029;-60
2020/12/02 14:23:01;;;;;;;18.52;8.70;;;;;;;;;;5029594;28;20025;-59
2020/12/02 14:25:27;;;;;;;17.80;8.55;;;;;;;;;;5016921;28;20064;-60
2020/12/02 14:27:58;;;;;;;19.05;8.38;;;;;;;;;;5020776;28;20516;-60
2020/12/02 14:30:26;;;;;;;20.17;8.60;;;;;;;;;;5008883;28;20083;-60
2020/12/02 14:32:53;;;;;;;22.17;8.77;;;;;;;;;;5021007;28;20037;-60
2020/12/02 14:35:21;;;;;;;21.25;9.20;;;;;;;;;;5018084;28;20377;-59
2020/12/02 14:37:53;;;;;;;18.05;8.32;;;;;;;;;;5029191;28;20048;-57
2020/12/02 14:40:21;;;;;;;20.73;9.15;;;;;;;;;;5018915;28;20072;-58